sensor_id;sensor_type;location;lat;lon;timestamp;temperature;humidity
11009;DHT22;5557;51.670;7.788;2023-05-10T00:02:04;13.30;99.90
11009;DHT22;5557;51.670;7.788;2023-05-10T00:04:32;13.20;99.90
11009;DHT22;5557;51.670;7.788;2023-05-10T00:06:59;13.20;99.90
11009;DHT22;5557;51.670;7.788;2023-05-10T00:09:26;13.20;99.90
11009;DHT22;5557;51.670;7.788;2023-05-10T00:11:53;13.20;99.90
11009;DHT22;5557;51.670;7.788;2023-05-10T00:14:20;13.20;99.90
11009;DHT22;5557;51.670;7.788;2023-05-10T00:16:47;13.10;99.90
11009;DHT22;5557;51.670;7.788;2023-05-10T00:19:14;13.10;99.90
11009;DHT22;5557;51.670;7.788;2023-05-10T00:21:41;13.10;99.90
11009;DHT22;5557;51.670;7.788;2023-05-10T00:24:08;13.10;99.90
11009;DHT22;5557;51.670;7.788;2023-05-10T00:26:35;13.10;99.90
11009;DHT22;5557;51.670;7.788;2023-05-10T00:29:02;13.10;99.90
11009;DHT22;5557;51.670;7.788;2023-05-10T00:31:29;13.10;99.90
11009;DHT22;5557;51.670;7.788;2023-05-10T00:33:56;13.00;99.90
11009;DHT22;5557;51.670;7.788;2023-05-10T00:36:23;13.00;99.90
11009;DHT22;5557;51.670;7.788;2023-05-10T00:38:50;13.00;99.90
11009;DHT22;5557;51.670;7.788;2023-05-10T00:41:17;13.00;99.90
11009;DHT22;5557;51.670;7.788;2023-05-10T00:43:44;13.00;99.90
11009;DHT22;5557;51.670;7.788;2023-05-10T00:46:11;13.00;99.90
11009;DHT22;5557;51.670;7.788;2023-05-10T00:48:38;13.00;99.90
11009;DHT22;5557;51.670;7.788;2023-05-10T00:51:05;13.00;99.90
11009;DHT22;5557;51.670;7.788;2023-05-10T00:53:34;13.00;99.90
11009;DHT22;5557;51.670;7.788;2023-05-10T00:56:01;13.00;99.90
11009;DHT22;5557;51.670;7.788;2023-05-10T00:58:29;13.00;99.90
11009;DHT22;5557;51.670;7.788;2023-05-10T01:00:58;13.00;99.90
11009;DHT22;5557;51.670;7.788;2023-05-10T01:03:25;12.90;99.90
11009;DHT22;5557;51.670;7.788;2023-05-10T01:05:52;13.00;99.90
11009;DHT22;5557;51.670;7.788;2023-05-10T01:08:19;13.00;99.90
11009;DHT22;5557;51.670;7.788;2023-05-10T01:10:47;13.00;99.90
11009;DHT22;5557;51.670;7.788;2023-05-10T01:13:33;13.00;99.90
11009;DHT22;5557;51.670;7.788;2023-05-10T01:16:00;13.00;99.90
11009;DHT22;5557;51.670;7.788;2023-05-10T01:18:30;13.00;99.90
11009;DHT22;5557;51.670;7.788;2023-05-10T01:21:23;13.00;99.90
11009;DHT22;5557;51.670;7.788;2023-05-10T01:24:42;12.90;99.90
11009;DHT22;5557;51.670;7.788;2023-05-10T01:34:13;13.00;99.90
11009;DHT22;5557;51.670;7.788;2023-05-10T01:36:48;13.00;99.90
11009;DHT22;5557;51.670;7.788;2023-05-10T01:39:24;13.00;99.90
11009;DHT22;5557;51.670;7.788;2023-05-10T01:42:08;13.00;99.90
11009;DHT22;5557;51.670;7.788;2023-05-10T01:48:19;12.90;99.90
11009;DHT22;5557;51.670;7.788;2023-05-10T01:50:46;12.90;99.90
11009;DHT22;5557;51.670;7.788;2023-05-10T01:53:17;12.90;99.90
11009;DHT22;5557;51.670;7.788;2023-05-10T01:55:47;12.80;99.90
11009;DHT22;5557;51.670;7.788;2023-05-10T01:58:19;12.80;99.90
11009;DHT22;5557;51.670;7.788;2023-05-10T02:00:47;12.80;99.90
11009;DHT22;5557;51.670;7.788;2023-05-10T02:03:18;12.80;99.90
11009;DHT22;5557;51.670;7.788;2023-05-10T02:05:48;12.80;99.90
11009;DHT22;5557;51.670;7.788;2023-05-10T02:08:17;12.80;99.90
11009;DHT22;5557;51.670;7.788;2023-05-10T02:10:45;12.80;99.90
11009;DHT22;5557;51.670;7.788;2023-05-10T02:13:14;12.80;99.90
11009;DHT22;5557;51.670;7.788;2023-05-10T02:15:42;12.80;99.90
11009;DHT22;5557;51.670;7.788;2023-05-10T02:18:11;12.80;99.90
11009;DHT22;5557;51.670;7.788;2023-05-10T02:20:38;12.80;99.90
11009;DHT22;5557;51.670;7.788;2023-05-10T02:23:06;12.80;99.90
11009;DHT22;5557;51.670;7.788;2023-05-10T02:25:34;12.80;99.90
11009;DHT22;5557;51.670;7.788;2023-05-10T02:28:03;12.80;99.90
11009;DHT22;5557;51.670;7.788;2023-05-10T02:30:32;12.80;99.90
11009;DHT22;5557;51.670;7.788;2023-05-10T02:33:01;12.80;99.90
11009;DHT22;5557;51.670;7.788;2023-05-10T02:35:31;12.80;99.90
11009;DHT22;5557;51.670;7.788;2023-05-10T02:38:00;12.80;99.90
11009;DHT22;5557;51.670;7.788;2023-05-10T02:40:28;12.80;99.90
11009;DHT22;5557;51.670;7.788;2023-05-10T02:42:56;12.70;99.90
11009;DHT22;5557;51.670;7.788;2023-05-10T02:45:27;12.70;99.90
11009;DHT22;5557;51.670;7.788;2023-05-10T02:47:56;12.60;99.90
11009;DHT22;5557;51.670;7.788;2023-05-10T02:50:25;12.50;99.90
11009;DHT22;5557;51.670;7.788;2023-05-10T02:52:56;12.40;99.90
11009;DHT22;5557;51.670;7.788;2023-05-10T02:55:31;12.30;99.90
11009;DHT22;5557;51.670;7.788;2023-05-10T02:58:00;12.30;99.90
11009;DHT22;5557;51.670;7.788;2023-05-10T03:00:29;12.30;99.90
11009;DHT22;5557;51.670;7.788;2023-05-10T03:02:55;12.20;99.90
11009;DHT22;5557;51.670;7.788;2023-05-10T03:05:23;12.20;99.90
11009;DHT22;5557;51.670;7.788;2023-05-10T03:07:50;12.20;99.90
11009;DHT22;5557;51.670;7.788;2023-05-10T03:10:18;12.20;99.90
11009;DHT22;5557;51.670;7.788;2023-05-10T03:13:06;12.20;99.90
11009;DHT22;5557;51.670;7.788;2023-05-10T03:15:58;12.20;99.90
11009;DHT22;5557;51.670;7.788;2023-05-10T03:18:36;12.20;99.90
11009;DHT22;5557;51.670;7.788;2023-05-10T03:21:04;12.10;99.90
11009;DHT22;5557;51.670;7.788;2023-05-10T03:23:54;12.10;99.90
11009;DHT22;5557;51.670;7.788;2023-05-10T03:26:26;12.10;99.90
11009;DHT22;5557;51.670;7.788;2023-05-10T03:28:53;12.10;99.90
11009;DHT22;5557;51.670;7.788;2023-05-10T03:31:21;12.00;99.90
11009;DHT22;5557;51.670;7.788;2023-05-10T03:33:49;12.00;99.90
11009;DHT22;5557;51.670;7.788;2023-05-10T03:36:16;12.00;99.90
11009;DHT22;5557;51.670;7.788;2023-05-10T03:38:43;12.00;99.90
11009;DHT22;5557;51.670;7.788;2023-05-10T03:41:10;11.90;99.90
11009;DHT22;5557;51.670;7.788;2023-05-10T03:43:37;11.90;99.90
11009;DHT22;5557;51.670;7.788;2023-05-10T03:46:05;11.90;99.90
11009;DHT22;5557;51.670;7.788;2023-05-10T03:48:32;11.90;99.90
11009;DHT22;5557;51.670;7.788;2023-05-10T03:50:59;12.00;99.90
11009;DHT22;5557;51.670;7.788;2023-05-10T03:53:26;11.90;99.90
11009;DHT22;5557;51.670;7.788;2023-05-10T03:55:53;11.90;99.90
11009;DHT22;5557;51.670;7.788;2023-05-10T03:58:20;11.90;99.90
11009;DHT22;5557;51.670;7.788;2023-05-10T04:00:48;11.90;99.90
11009;DHT22;5557;51.670;7.788;2023-05-10T04:03:15;12.00;99.90
11009;DHT22;5557;51.670;7.788;2023-05-10T04:05:42;12.00;99.90
11009;DHT22;5557;51.670;7.788;2023-05-10T04:08:09;12.00;99.90
11009;DHT22;5557;51.670;7.788;2023-05-10T04:10:36;12.00;99.90
11009;DHT22;5557;51.670;7.788;2023-05-10T04:13:03;12.00;99.90
11009;DHT22;5557;51.670;7.788;2023-05-10T04:15:30;12.00;99.90
11009;DHT22;5557;51.670;7.788;2023-05-10T04:17:57;12.00;99.90
11009;DHT22;5557;51.670;7.788;2023-05-10T04:20:24;12.00;99.90
11009;DHT22;5557;51.670;7.788;2023-05-10T04:22:51;12.00;99.90
11009;DHT22;5557;51.670;7.788;2023-05-10T04:25:18;12.00;99.90
11009;DHT22;5557;51.670;7.788;2023-05-10T04:27:45;12.00;99.90
11009;DHT22;5557;51.670;7.788;2023-05-10T04:30:12;12.00;99.90
11009;DHT22;5557;51.670;7.788;2023-05-10T04:32:39;12.00;99.90
11009;DHT22;5557;51.670;7.788;2023-05-10T04:35:06;12.00;99.90
11009;DHT22;5557;51.670;7.788;2023-05-10T04:37:33;12.00;99.90
11009;DHT22;5557;51.670;7.788;2023-05-10T04:40:00;12.10;99.90
11009;DHT22;5557;51.670;7.788;2023-05-10T04:42:27;12.10;99.90
11009;DHT22;5557;51.670;7.788;2023-05-10T04:44:53;12.10;99.90
11009;DHT22;5557;51.670;7.788;2023-05-10T04:47:20;12.10;99.90
11009;DHT22;5557;51.670;7.788;2023-05-10T04:49:47;12.10;99.90
11009;DHT22;5557;51.670;7.788;2023-05-10T04:52:14;12.10;99.90
11009;DHT22;5557;51.670;7.788;2023-05-10T04:54:43;12.20;99.90
11009;DHT22;5557;51.670;7.788;2023-05-10T04:57:10;12.20;99.90
11009;DHT22;5557;51.670;7.788;2023-05-10T04:59:37;12.20;99.90
11009;DHT22;5557;51.670;7.788;2023-05-10T05:02:05;12.20;99.90
11009;DHT22;5557;51.670;7.788;2023-05-10T05:04:32;12.20;99.90
11009;DHT22;5557;51.670;7.788;2023-05-10T05:06:59;12.30;99.90
11009;DHT22;5557;51.670;7.788;2023-05-10T05:09:26;12.30;99.90
11009;DHT22;5557;51.670;7.788;2023-05-10T05:11:54;12.40;99.90
11009;DHT22;5557;51.670;7.788;2023-05-10T05:14:21;12.40;99.90
11009;DHT22;5557;51.670;7.788;2023-05-10T05:16:48;12.40;99.90
11009;DHT22;5557;51.670;7.788;2023-05-10T05:19:15;12.50;99.90
11009;DHT22;5557;51.670;7.788;2023-05-10T05:21:42;12.50;99.90
11009;DHT22;5557;51.670;7.788;2023-05-10T05:24:09;12.50;99.90
11009;DHT22;5557;51.670;7.788;2023-05-10T05:26:36;12.40;99.90
11009;DHT22;5557;51.670;7.788;2023-05-10T05:29:04;12.40;99.90
11009;DHT22;5557;51.670;7.788;2023-05-10T05:31:31;12.50;99.90
11009;DHT22;5557;51.670;7.788;2023-05-10T05:33:58;12.50;99.90
11009;DHT22;5557;51.670;7.788;2023-05-10T05:36:25;12.60;99.90
11009;DHT22;5557;51.670;7.788;2023-05-10T05:38:52;12.60;99.90
11009;DHT22;5557;51.670;7.788;2023-05-10T05:41:19;12.60;99.90
11009;DHT22;5557;51.670;7.788;2023-05-10T05:43:46;12.60;99.90
11009;DHT22;5557;51.670;7.788;2023-05-10T05:46:13;12.60;99.90
11009;DHT22;5557;51.670;7.788;2023-05-10T05:48:40;12.60;99.90
11009;DHT22;5557;51.670;7.788;2023-05-10T05:51:07;12.60;99.90
11009;DHT22;5557;51.670;7.788;2023-05-10T05:53:34;12.60;99.90
11009;DHT22;5557;51.670;7.788;2023-05-10T05:56:01;12.60;99.90
11009;DHT22;5557;51.670;7.788;2023-05-10T05:58:28;12.60;99.90
11009;DHT22;5557;51.670;7.788;2023-05-10T06:00:55;12.70;99.90
11009;DHT22;5557;51.670;7.788;2023-05-10T06:03:22;12.70;99.90
11009;DHT22;5557;51.670;7.788;2023-05-10T06:05:49;12.80;99.90
11009;DHT22;5557;51.670;7.788;2023-05-10T06:08:16;12.90;99.90
11009;DHT22;5557;51.670;7.788;2023-05-10T06:10:43;12.90;99.90
11009;DHT22;5557;51.670;7.788;2023-05-10T06:13:11;13.00;99.90
11009;DHT22;5557;51.670;7.788;2023-05-10T06:15:38;13.00;99.90
11009;DHT22;5557;51.670;7.788;2023-05-10T06:18:05;13.00;99.90
11009;DHT22;5557;51.670;7.788;2023-05-10T06:20:32;13.00;99.90
11009;DHT22;5557;51.670;7.788;2023-05-10T06:22:59;13.00;99.90
11009;DHT22;5557;51.670;7.788;2023-05-10T06:25:26;13.00;99.90
11009;DHT22;5557;51.670;7.788;2023-05-10T06:27:53;13.00;99.90
11009;DHT22;5557;51.670;7.788;2023-05-10T06:30:25;13.00;99.90
11009;DHT22;5557;51.670;7.788;2023-05-10T06:32:55;13.00;99.90
11009;DHT22;5557;51.670;7.788;2023-05-10T06:35:22;13.10;99.90
11009;DHT22;5557;51.670;7.788;2023-05-10T06:37:49;13.10;99.90
11009;DHT22;5557;51.670;7.788;2023-05-10T06:40:17;13.10;99.90
11009;DHT22;5557;51.670;7.788;2023-05-10T06:42:44;13.10;99.90
11009;DHT22;5557;51.670;7.788;2023-05-10T06:45:12;13.20;99.90
11009;DHT22;5557;51.670;7.788;2023-05-10T06:47:39;13.20;99.90
11009;DHT22;5557;51.670;7.788;2023-05-10T06:50:07;13.20;99.90
11009;DHT22;5557;51.670;7.788;2023-05-10T06:52:35;13.20;99.90
11009;DHT22;5557;51.670;7.788;2023-05-10T06:55:03;13.20;99.90
11009;DHT22;5557;51.670;7.788;2023-05-10T06:57:31;13.40;99.90
11009;DHT22;5557;51.670;7.788;2023-05-10T06:59:59;13.40;99.90
11009;DHT22;5557;51.670;7.788;2023-05-10T07:02:26;13.40;99.90
11009;DHT22;5557;51.670;7.788;2023-05-10T07:04:53;13.50;99.90
11009;DHT22;5557;51.670;7.788;2023-05-10T07:07:21;13.50;99.90
11009;DHT22;5557;51.670;7.788;2023-05-10T07:09:48;13.60;99.90
11009;DHT22;5557;51.670;7.788;2023-05-10T07:12:16;13.70;99.90
11009;DHT22;5557;51.670;7.788;2023-05-10T07:14:43;13.80;99.90
11009;DHT22;5557;51.670;7.788;2023-05-10T07:17:10;13.90;99.90
11009;DHT22;5557;51.670;7.788;2023-05-10T07:19:37;14.00;99.90
11009;DHT22;5557;51.670;7.788;2023-05-10T07:22:04;14.10;99.90
11009;DHT22;5557;51.670;7.788;2023-05-10T07:24:32;14.30;99.90
11009;DHT22;5557;51.670;7.788;2023-05-10T07:26:59;14.40;99.90
11009;DHT22;5557;51.670;7.788;2023-05-10T07:29:26;14.50;99.90
11009;DHT22;5557;51.670;7.788;2023-05-10T07:31:53;14.60;99.90
11009;DHT22;5557;51.670;7.788;2023-05-10T07:34:24;14.70;99.90
11009;DHT22;5557;51.670;7.788;2023-05-10T07:36:51;14.80;99.90
11009;DHT22;5557;51.670;7.788;2023-05-10T07:39:18;15.00;99.90
11009;DHT22;5557;51.670;7.788;2023-05-10T07:41:54;15.30;99.90
11009;DHT22;5557;51.670;7.788;2023-05-10T07:44:22;15.90;99.90
11009;DHT22;5557;51.670;7.788;2023-05-10T07:46:49;16.80;99.90
11009;DHT22;5557;51.670;7.788;2023-05-10T07:49:16;17.60;99.90
11009;DHT22;5557;51.670;7.788;2023-05-10T07:51:43;17.90;76.40
11009;DHT22;5557;51.670;7.788;2023-05-10T07:54:10;17.90;75.10
11009;DHT22;5557;51.670;7.788;2023-05-10T07:56:37;18.30;72.70
11009;DHT22;5557;51.670;7.788;2023-05-10T07:59:06;18.60;60.20
11009;DHT22;5557;51.670;7.788;2023-05-10T08:01:36;19.30;45.10
11009;DHT22;5557;51.670;7.788;2023-05-10T08:04:03;19.60;32.70
11009;DHT22;5557;51.670;7.788;2023-05-10T08:06:30;20.10;23.70
11009;DHT22;5557;51.670;7.788;2023-05-10T08:08:57;20.40;16.00
11009;DHT22;5557;51.670;7.788;2023-05-10T08:11:24;20.60;16.90
11009;DHT22;5557;51.670;7.788;2023-05-10T08:13:52;20.80;14.80
11009;DHT22;5557;51.670;7.788;2023-05-10T08:16:19;20.10;10.50
11009;DHT22;5557;51.670;7.788;2023-05-10T08:18:47;20.40;14.30
11009;DHT22;5557;51.670;7.788;2023-05-10T08:21:15;20.20;1.20
11009;DHT22;5557;51.670;7.788;2023-05-10T08:23:42;20.80;6.80
11009;DHT22;5557;51.670;7.788;2023-05-10T08:26:11;21.70;1.00
11009;DHT22;5557;51.670;7.788;2023-05-10T08:28:37;21.60;1.00
11009;DHT22;5557;51.670;7.788;2023-05-10T08:31:05;21.30;1.00
11009;DHT22;5557;51.670;7.788;2023-05-10T08:33:32;21.30;1.00
11009;DHT22;5557;51.670;7.788;2023-05-10T08:35:59;21.30;1.00
11009;DHT22;5557;51.670;7.788;2023-05-10T08:38:26;21.90;1.00
11009;DHT22;5557;51.670;7.788;2023-05-10T08:40:54;21.90;1.00
11009;DHT22;5557;51.670;7.788;2023-05-10T08:43:29;21.80;1.00
11009;DHT22;5557;51.670;7.788;2023-05-10T08:45:59;21.70;1.00
11009;DHT22;5557;51.670;7.788;2023-05-10T08:48:29;21.60;1.00
11009;DHT22;5557;51.670;7.788;2023-05-10T08:50:58;21.30;1.00
11009;DHT22;5557;51.670;7.788;2023-05-10T08:53:28;20.80;1.00
11009;DHT22;5557;51.670;7.788;2023-05-10T08:55:57;20.30;1.00
11009;DHT22;5557;51.670;7.788;2023-05-10T08:58:25;19.50;1.00
11009;DHT22;5557;51.670;7.788;2023-05-10T09:00:52;18.80;8.20
11009;DHT22;5557;51.670;7.788;2023-05-10T09:03:20;18.60;11.60
11009;DHT22;5557;51.670;7.788;2023-05-10T09:05:48;18.30;12.40
11009;DHT22;5557;51.670;7.788;2023-05-10T09:08:15;18.20;14.90
11009;DHT22;5557;51.670;7.788;2023-05-10T09:10:46;18.20;18.10
11009;DHT22;5557;51.670;7.788;2023-05-10T09:13:15;18.70;16.30
11009;DHT22;5557;51.670;7.788;2023-05-10T09:15:44;19.10;8.90
11009;DHT22;5557;51.670;7.788;2023-05-10T09:18:12;19.70;10.00
11009;DHT22;5557;51.670;7.788;2023-05-10T09:20:39;21.20;1.00
11009;DHT22;5557;51.670;7.788;2023-05-10T09:23:07;22.00;1.00
11009;DHT22;5557;51.670;7.788;2023-05-10T09:25:34;21.90;1.00
11009;DHT22;5557;51.670;7.788;2023-05-10T09:28:01;21.30;1.00
11009;DHT22;5557;51.670;7.788;2023-05-10T09:30:30;20.40;1.00
11009;DHT22;5557;51.670;7.788;2023-05-10T09:32:58;19.80;1.00
11009;DHT22;5557;51.670;7.788;2023-05-10T09:35:31;19.70;1.00
11009;DHT22;5557;51.670;7.788;2023-05-10T09:38:02;20.30;1.00
11009;DHT22;5557;51.670;7.788;2023-05-10T09:40:30;21.30;1.00
11009;DHT22;5557;51.670;7.788;2023-05-10T09:43:02;22.00;1.00
11009;DHT22;5557;51.670;7.788;2023-05-10T09:45:31;22.20;1.00
11009;DHT22;5557;51.670;7.788;2023-05-10T09:48:02;21.90;1.00
11009;DHT22;5557;51.670;7.788;2023-05-10T09:50:30;21.30;1.00
11009;DHT22;5557;51.670;7.788;2023-05-10T09:53:02;20.40;1.00
11009;DHT22;5557;51.670;7.788;2023-05-10T09:55:56;19.90;1.00
11009;DHT22;5557;51.670;7.788;2023-05-10T09:58:23;19.60;1.00
11009;DHT22;5557;51.670;7.788;2023-05-10T10:00:50;19.50;1.00
11009;DHT22;5557;51.670;7.788;2023-05-10T10:03:20;19.40;2.40
11009;DHT22;5557;51.670;7.788;2023-05-10T10:05:48;19.70;1.00
11009;DHT22;5557;51.670;7.788;2023-05-10T10:08:15;19.80;1.00
11009;DHT22;5557;51.670;7.788;2023-05-10T10:10:43;20.10;1.00
11009;DHT22;5557;51.670;7.788;2023-05-10T10:13:13;19.90;1.00
11009;DHT22;5557;51.670;7.788;2023-05-10T10:15:42;19.50;12.80
11009;DHT22;5557;51.670;7.788;2023-05-10T10:18:14;18.70;41.00
11009;DHT22;5557;51.670;7.788;2023-05-10T10:20:43;18.10;46.50
11009;DHT22;5557;51.670;7.788;2023-05-10T10:23:11;17.50;60.00
11009;DHT22;5557;51.670;7.788;2023-05-10T10:25:39;17.30;70.80
11009;DHT22;5557;51.670;7.788;2023-05-10T10:28:20;17.20;72.60
11009;DHT22;5557;51.670;7.788;2023-05-10T10:30:55;17.30;80.40
11009;DHT22;5557;51.670;7.788;2023-05-10T10:36:46;17.90;70.50
11009;DHT22;5557;51.670;7.788;2023-05-10T10:39:16;18.00;52.50
11009;DHT22;5557;51.670;7.788;2023-05-10T10:41:55;17.90;48.20
11009;DHT22;5557;51.670;7.788;2023-05-10T10:44:27;17.90;43.00
11009;DHT22;5557;51.670;7.788;2023-05-10T10:47:33;18.10;54.70
11009;DHT22;5557;51.670;7.788;2023-05-10T10:50:04;18.80;45.80
11009;DHT22;5557;51.670;7.788;2023-05-10T10:55:20;19.50;19.60
11009;DHT22;5557;51.670;7.788;2023-05-10T10:57:53;19.60;18.50
11009;DHT22;5557;51.670;7.788;2023-05-10T11:00:37;19.90;12.40
11009;DHT22;5557;51.670;7.788;2023-05-10T11:03:11;20.40;15.40
11009;DHT22;5557;51.670;7.788;2023-05-10T11:05:47;20.80;14.20
11009;DHT22;5557;51.670;7.788;2023-05-10T11:08:41;21.20;12.60
11009;DHT22;5557;51.670;7.788;2023-05-10T11:11:09;21.30;1.00
11009;DHT22;5557;51.670;7.788;2023-05-10T11:13:46;21.30;1.00
11009;DHT22;5557;51.670;7.788;2023-05-10T11:16:24;21.60;2.30
11009;DHT22;5557;51.670;7.788;2023-05-10T11:19:12;21.60;1.00
11009;DHT22;5557;51.670;7.788;2023-05-10T11:21:51;21.80;1.00
11009;DHT22;5557;51.670;7.788;2023-05-10T11:24:21;21.80;1.00
11009;DHT22;5557;51.670;7.788;2023-05-10T11:26:53;21.70;1.00
11009;DHT22;5557;51.670;7.788;2023-05-10T11:29:20;21.50;1.00
11009;DHT22;5557;51.670;7.788;2023-05-10T11:31:48;21.20;1.00
11009;DHT22;5557;51.670;7.788;2023-05-10T11:34:25;21.10;1.00
11009;DHT22;5557;51.670;7.788;2023-05-10T11:36:54;21.30;1.00
11009;DHT22;5557;51.670;7.788;2023-05-10T11:39:21;21.40;1.00
11009;DHT22;5557;51.670;7.788;2023-05-10T11:41:49;21.50;1.00
11009;DHT22;5557;51.670;7.788;2023-05-10T11:44:16;21.60;1.00
11009;DHT22;5557;51.670;7.788;2023-05-10T11:46:43;20.90;1.00
11009;DHT22;5557;51.670;7.788;2023-05-10T11:49:10;20.10;1.00
11009;DHT22;5557;51.670;7.788;2023-05-10T11:51:38;19.20;1.00
11009;DHT22;5557;51.670;7.788;2023-05-10T11:54:07;18.70;1.00
11009;DHT22;5557;51.670;7.788;2023-05-10T11:56:38;18.10;6.30
11009;DHT22;5557;51.670;7.788;2023-05-10T11:59:06;17.70;15.70
11009;DHT22;5557;51.670;7.788;2023-05-10T12:01:34;17.40;21.50
11009;DHT22;5557;51.670;7.788;2023-05-10T12:04:02;17.30;28.80
11009;DHT22;5557;51.670;7.788;2023-05-10T12:06:31;17.50;28.60
11009;DHT22;5557;51.670;7.788;2023-05-10T12:08:59;17.70;27.50
11009;DHT22;5557;51.670;7.788;2023-05-10T12:11:27;18.10;25.20
11009;DHT22;5557;51.670;7.788;2023-05-10T12:13:55;18.50;21.10
11009;DHT22;5557;51.670;7.788;2023-05-10T12:16:28;18.80;14.00
11009;DHT22;5557;51.670;7.788;2023-05-10T12:18:59;18.80;12.40
11009;DHT22;5557;51.670;7.788;2023-05-10T12:21:30;18.90;13.50
11009;DHT22;5557;51.670;7.788;2023-05-10T12:24:04;18.90;12.90
11009;DHT22;5557;51.670;7.788;2023-05-10T12:26:35;18.90;13.50
11009;DHT22;5557;51.670;7.788;2023-05-10T12:29:12;19.00;12.00
11009;DHT22;5557;51.670;7.788;2023-05-10T12:32:09;19.00;11.00
11009;DHT22;5557;51.670;7.788;2023-05-10T12:34:36;19.10;11.10
11009;DHT22;5557;51.670;7.788;2023-05-10T12:37:05;19.30;11.00
11009;DHT22;5557;51.670;7.788;2023-05-10T12:39:42;19.40;8.00
11009;DHT22;5557;51.670;7.788;2023-05-10T12:42:10;19.60;6.80
11009;DHT22;5557;51.670;7.788;2023-05-10T12:44:37;19.50;3.60
11009;DHT22;5557;51.670;7.788;2023-05-10T12:47:04;19.60;4.20
11009;DHT22;5557;51.670;7.788;2023-05-10T12:49:31;19.40;1.00
11009;DHT22;5557;51.670;7.788;2023-05-10T12:51:58;19.40;2.80
11009;DHT22;5557;51.670;7.788;2023-05-10T12:54:25;19.40;1.00
11009;DHT22;5557;51.670;7.788;2023-05-10T12:56:52;19.50;1.00
11009;DHT22;5557;51.670;7.788;2023-05-10T12:59:19;19.40;1.00
11009;DHT22;5557;51.670;7.788;2023-05-10T13:01:46;19.30;1.00
11009;DHT22;5557;51.670;7.788;2023-05-10T13:04:13;19.40;1.00
11009;DHT22;5557;51.670;7.788;2023-05-10T13:06:40;19.40;1.00
11009;DHT22;5557;51.670;7.788;2023-05-10T13:09:07;19.50;1.00
11009;DHT22;5557;51.670;7.788;2023-05-10T13:11:34;19.60;1.00
11009;DHT22;5557;51.670;7.788;2023-05-10T13:14:01;19.50;1.00
11009;DHT22;5557;51.670;7.788;2023-05-10T13:16:29;19.30;1.00
11009;DHT22;5557;51.670;7.788;2023-05-10T13:18:57;19.20;1.00
11009;DHT22;5557;51.670;7.788;2023-05-10T13:21:25;19.30;1.00
11009;DHT22;5557;51.670;7.788;2023-05-10T13:23:52;19.40;1.00
11009;DHT22;5557;51.670;7.788;2023-05-10T13:26:19;19.50;1.00
11009;DHT22;5557;51.670;7.788;2023-05-10T13:28:46;19.70;1.00
11009;DHT22;5557;51.670;7.788;2023-05-10T13:31:15;19.70;1.00
11009;DHT22;5557;51.670;7.788;2023-05-10T13:33:42;19.80;1.00
11009;DHT22;5557;51.670;7.788;2023-05-10T13:36:09;19.90;1.00
11009;DHT22;5557;51.670;7.788;2023-05-10T13:38:36;19.70;1.00
11009;DHT22;5557;51.670;7.788;2023-05-10T13:41:04;19.70;1.00
11009;DHT22;5557;51.670;7.788;2023-05-10T13:43:31;19.70;1.00
11009;DHT22;5557;51.670;7.788;2023-05-10T13:45:58;19.70;1.00
11009;DHT22;5557;51.670;7.788;2023-05-10T13:48:25;19.90;1.00
11009;DHT22;5557;51.670;7.788;2023-05-10T13:50:52;19.90;1.00
11009;DHT22;5557;51.670;7.788;2023-05-10T13:53:19;19.90;1.00
11009;DHT22;5557;51.670;7.788;2023-05-10T13:55:46;19.90;1.00
11009;DHT22;5557;51.670;7.788;2023-05-10T13:58:12;19.80;1.00
11009;DHT22;5557;51.670;7.788;2023-05-10T14:00:39;19.60;1.00
11009;DHT22;5557;51.670;7.788;2023-05-10T14:03:06;19.50;1.00
11009;DHT22;5557;51.670;7.788;2023-05-10T14:05:35;19.40;1.00
11009;DHT22;5557;51.670;7.788;2023-05-10T14:08:02;19.30;1.00
11009;DHT22;5557;51.670;7.788;2023-05-10T14:10:30;19.30;1.00
11009;DHT22;5557;51.670;7.788;2023-05-10T14:12:57;19.30;1.00
11009;DHT22;5557;51.670;7.788;2023-05-10T14:15:24;19.40;1.00
11009;DHT22;5557;51.670;7.788;2023-05-10T14:17:51;19.40;1.00
11009;DHT22;5557;51.670;7.788;2023-05-10T14:20:18;19.30;1.00
11009;DHT22;5557;51.670;7.788;2023-05-10T14:22:45;19.40;1.00
11009;DHT22;5557;51.670;7.788;2023-05-10T14:25:12;19.40;1.00
11009;DHT22;5557;51.670;7.788;2023-05-10T14:27:39;19.30;1.00
11009;DHT22;5557;51.670;7.788;2023-05-10T14:30:07;19.30;1.00
11009;DHT22;5557;51.670;7.788;2023-05-10T14:32:34;19.40;1.00
11009;DHT22;5557;51.670;7.788;2023-05-10T14:35:03;19.40;1.00
11009;DHT22;5557;51.670;7.788;2023-05-10T14:37:30;19.40;1.00
11009;DHT22;5557;51.670;7.788;2023-05-10T14:39:57;19.60;1.00
11009;DHT22;5557;51.670;7.788;2023-05-10T14:42:24;19.80;1.00
11009;DHT22;5557;51.670;7.788;2023-05-10T14:44:51;19.90;1.00
11009;DHT22;5557;51.670;7.788;2023-05-10T14:47:18;19.90;1.00
11009;DHT22;5557;51.670;7.788;2023-05-10T14:49:45;19.80;1.00
11009;DHT22;5557;51.670;7.788;2023-05-10T14:52:12;19.90;1.00
11009;DHT22;5557;51.670;7.788;2023-05-10T14:54:40;20.00;1.00
11009;DHT22;5557;51.670;7.788;2023-05-10T14:57:07;19.90;1.00
11009;DHT22;5557;51.670;7.788;2023-05-10T14:59:34;20.00;1.00
11009;DHT22;5557;51.670;7.788;2023-05-10T15:02:02;19.90;1.00
11009;DHT22;5557;51.670;7.788;2023-05-10T15:04:30;20.10;1.00
11009;DHT22;5557;51.670;7.788;2023-05-10T15:06:57;20.20;1.00
11009;DHT22;5557;51.670;7.788;2023-05-10T15:09:26;20.30;1.00
11009;DHT22;5557;51.670;7.788;2023-05-10T15:11:55;20.20;1.00
11009;DHT22;5557;51.670;7.788;2023-05-10T15:14:22;20.30;1.00
11009;DHT22;5557;51.670;7.788;2023-05-10T15:16:49;20.30;1.00
11009;DHT22;5557;51.670;7.788;2023-05-10T15:19:16;20.20;1.00
11009;DHT22;5557;51.670;7.788;2023-05-10T15:21:43;20.20;1.00
11009;DHT22;5557;51.670;7.788;2023-05-10T15:24:11;20.20;1.00
11009;DHT22;5557;51.670;7.788;2023-05-10T15:26:38;20.20;1.00
11009;DHT22;5557;51.670;7.788;2023-05-10T15:29:05;20.20;1.00
11009;DHT22;5557;51.670;7.788;2023-05-10T15:31:32;20.30;1.00
11009;DHT22;5557;51.670;7.788;2023-05-10T15:34:01;20.20;1.00
11009;DHT22;5557;51.670;7.788;2023-05-10T15:36:28;20.10;1.00
11009;DHT22;5557;51.670;7.788;2023-05-10T15:38:55;20.10;1.00
11009;DHT22;5557;51.670;7.788;2023-05-10T15:41:22;20.00;1.00
11009;DHT22;5557;51.670;7.788;2023-05-10T15:43:50;20.00;1.00
11009;DHT22;5557;51.670;7.788;2023-05-10T15:46:17;19.80;1.00
11009;DHT22;5557;51.670;7.788;2023-05-10T15:48:44;19.70;1.00
11009;DHT22;5557;51.670;7.788;2023-05-10T15:51:11;19.70;1.00
11009;DHT22;5557;51.670;7.788;2023-05-10T15:53:38;19.70;1.00
11009;DHT22;5557;51.670;7.788;2023-05-10T15:56:18;19.60;1.00
11009;DHT22;5557;51.670;7.788;2023-05-10T15:58:45;19.50;1.00
11009;DHT22;5557;51.670;7.788;2023-05-10T16:01:12;19.50;1.00
11009;DHT22;5557;51.670;7.788;2023-05-10T16:03:39;19.60;1.00
11009;DHT22;5557;51.670;7.788;2023-05-10T16:06:06;19.70;1.00
11009;DHT22;5557;51.670;7.788;2023-05-10T16:08:33;19.70;1.00
11009;DHT22;5557;51.670;7.788;2023-05-10T16:11:01;19.70;1.00
11009;DHT22;5557;51.670;7.788;2023-05-10T16:13:28;19.70;1.00
11009;DHT22;5557;51.670;7.788;2023-05-10T16:15:56;19.70;1.00
11009;DHT22;5557;51.670;7.788;2023-05-10T16:18:23;19.60;1.00
11009;DHT22;5557;51.670;7.788;2023-05-10T16:20:52;19.60;1.00